Time;durP1;ratioP1;P1;durP2;ratioP2;P2;SDS_P1;SDS_P2;PMS_P1;PMS_P2;Temp;Humidity;BMP_temperature;BMP_pressure;BME280_temperature;BME280_humidity;BME280_pressure;Samples;Min_cycle;Max_cycle;Signal;HPM_P1;HPM_P2
2021/11/28 00:01:53;;;;;;;28.48;15.38;;;1.50;99.20;;;;;;4931469;29;20481;-74
2021/11/28 00:04:21;;;;;;;27.77;15.98;;;1.40;99.20;;;;;;4927618;29;20020;-71
2021/11/28 00:07:01;;;;;;;32.63;17.45;;;1.40;99.20;;;;;;4937220;28;20293;-73
2021/11/28 00:09:39;;;;;;;30.77;16.63;;;1.40;99.30;;;;;;4920007;29;20086;-74
2021/11/28 00:14:43;;;;;;;29.98;17.35;;;1.40;99.30;;;;;;4922643;29;20405;-72
2021/11/28 00:17:13;;;;;;;29.45;15.55;;;1.30;99.30;;;;;;4925134;23;20283;-73
2021/11/28 00:19:39;;;;;;;33.53;17.23;;;1.30;99.30;;;;;;4912715;28;20031;-73
2021/11/28 00:22:06;;;;;;;33.47;17.75;;;1.30;99.40;;;;;;4938642;28;20062;-73
2021/11/28 00:24:32;;;;;;;34.22;18.38;;;1.20;99.40;;;;;;4957456;28;20129;-73
2021/11/28 00:26:57;;;;;;;32.22;16.95;;;1.20;99.40;;;;;;4953063;28;20023;-73
2021/11/28 00:29:23;;;;;;;34.55;17.27;;;1.30;99.40;;;;;;4945444;28;20448;-73
2021/11/28 00:31:49;;;;;;;31.65;18.10;;;1.20;99.50;;;;;;4942355;28;20030;-74
2021/11/28 00:34:14;;;;;;;34.55;18.88;;;1.20;99.50;;;;;;4941270;28;20043;-73
2021/11/28 00:36:40;;;;;;;30.88;16.48;;;1.30;99.50;;;;;;4938802;28;20028;-74
2021/11/28 00:39:05;;;;;;;35.13;17.77;;;1.20;99.50;;;;;;4949879;28;20023;-73
2021/11/28 00:41:31;;;;;;;28.50;16.73;;;1.20;99.50;;;;;;4953956;28;20487;-73
2021/11/28 00:43:56;;;;;;;27.85;14.27;;;1.30;99.50;;;;;;4946306;28;20082;-73
2021/11/28 00:46:22;;;;;;;28.13;16.15;;;1.20;99.50;;;;;;4941669;28;20399;-74
2021/11/28 00:48:47;;;;;;;29.40;14.65;;;1.20;99.50;;;;;;4942911;28;20099;-73
2021/11/28 00:53:42;;;;;;;27.05;14.38;;;1.30;99.60;;;;;;4947843;28;20118;-73
2021/11/28 00:56:08;;;;;;;26.00;14.05;;;1.30;99.60;;;;;;4941902;28;20106;-73
2021/11/28 00:58:33;;;;;;;25.15;13.32;;;1.30;99.60;;;;;;4945326;28;20046;-74
2021/11/28 01:00:59;;;;;;;24.85;13.38;;;1.30;99.60;;;;;;4959940;28;20113;-74
2021/11/28 01:03:24;;;;;;;26.55;14.07;;;1.20;99.60;;;;;;4943655;28;20166;-74
2021/11/28 01:05:50;;;;;;;25.77;15.18;;;1.30;99.60;;;;;;4942596;28;20085;-74
2021/11/28 01:08:16;;;;;;;29.17;15.13;;;1.30;99.60;;;;;;4944795;29;20043;-74
2021/11/28 01:10:44;;;;;;;27.27;14.20;;;1.30;99.60;;;;;;4946040;28;20480;-74
2021/11/28 01:13:09;;;;;;;29.77;14.80;;;1.30;99.60;;;;;;4924733;29;20027;-73
2021/11/28 01:15:35;;;;;;;27.13;14.15;;;1.30;99.60;;;;;;4947641;29;20058;-73
2021/11/28 01:18:00;;;;;;;26.67;13.70;;;1.30;99.60;;;;;;4944963;29;20067;-73
2021/11/28 01:20:26;;;;;;;27.88;14.50;;;1.40;99.60;;;;;;4920022;29;20059;-73
2021/11/28 01:22:51;;;;;;;24.27;13.65;;;1.30;99.60;;;;;;4927586;29;20023;-74
2021/11/28 01:25:17;;;;;;;30.67;14.35;;;1.40;99.70;;;;;;4938728;29;20028;-74
2021/11/28 01:27:43;;;;;;;25.75;13.63;;;1.30;99.60;;;;;;4943322;28;20112;-73
2021/11/28 01:30:10;;;;;;;27.52;14.48;;;1.40;99.70;;;;;;4941108;29;20059;-74
2021/11/28 01:32:37;;;;;;;25.27;13.57;;;1.40;99.70;;;;;;4941048;28;20031;-75
2021/11/28 01:35:08;;;;;;;30.25;14.43;;;1.40;99.70;;;;;;4942634;29;20043;-73
2021/11/28 01:37:34;;;;;;;28.02;13.07;;;1.40;99.70;;;;;;4945725;28;20052;-75
2021/11/28 01:40:04;;;;;;;25.85;14.05;;;1.50;99.70;;;;;;4941989;29;20404;-73
2021/11/28 01:42:41;;;;;;;25.60;13.93;;;1.50;99.70;;;;;;4941700;29;20118;-73
2021/11/28 01:45:11;;;;;;;29.60;14.57;;;1.50;99.70;;;;;;4944157;29;20394;-75
2021/11/28 01:47:37;;;;;;;32.20;16.33;;;1.50;99.70;;;;;;4946242;29;20054;-73
2021/11/28 01:50:04;;;;;;;29.10;15.15;;;1.50;99.70;;;;;;4941111;29;20087;-74
2021/11/28 01:52:30;;;;;;;37.83;16.63;;;1.50;99.70;;;;;;4923768;29;20034;-73
2021/11/28 01:54:56;;;;;;;29.33;15.35;;;1.50;99.80;;;;;;4943380;29;20106;-73
2021/11/28 01:57:21;;;;;;;36.90;17.45;;;1.50;99.80;;;;;;4920538;29;20337;-75
2021/11/28 01:59:47;;;;;;;35.10;17.23;;;1.50;99.80;;;;;;4946433;29;20039;-74
2021/11/28 02:02:12;;;;;;;32.75;16.33;;;1.50;99.80;;;;;;4942313;29;20103;-74
2021/11/28 02:04:39;;;;;;;30.27;16.40;;;1.60;99.80;;;;;;4928195;29;20200;-74
2021/11/28 02:07:07;;;;;;;30.40;15.43;;;1.50;99.80;;;;;;4940263;29;20127;-74
2021/11/28 02:09:35;;;;;;;33.25;16.05;;;1.60;99.80;;;;;;4939235;28;20039;-74
2021/11/28 02:12:01;;;;;;;33.42;16.08;;;1.60;99.90;;;;;;4939647;29;20271;-74
2021/11/28 02:14:26;;;;;;;32.83;16.90;;;1.60;99.80;;;;;;4929757;28;20174;-74
2021/11/28 02:16:52;;;;;;;34.65;17.02;;;1.60;99.90;;;;;;4938394;28;20447;-74
2021/11/28 02:19:17;;;;;;;37.60;17.38;;;1.60;99.90;;;;;;4928496;29;20033;-74
2021/11/28 02:21:43;;;;;;;33.42;16.85;;;1.60;99.90;;;;;;4943197;29;20060;-74
2021/11/28 02:24:09;;;;;;;42.30;18.65;;;1.70;99.90;;;;;;4924757;29;20019;-73
2021/11/28 02:26:34;;;;;;;36.97;17.63;;;1.60;99.90;;;;;;4946116;29;20039;-74
2021/11/28 02:29:00;;;;;;;33.92;16.15;;;1.70;99.90;;;;;;4947349;29;20088;-75
2021/11/28 02:31:25;;;;;;;35.42;16.92;;;1.60;99.90;;;;;;4951357;29;20173;-74
2021/11/28 02:33:51;;;;;;;35.95;17.67;;;1.60;99.90;;;;;;4948424;29;20054;-74
2021/11/28 02:36:18;;;;;;;30.08;15.48;;;1.60;99.90;;;;;;4933902;29;20193;-73
2021/11/28 02:38:45;;;;;;;35.53;17.48;;;1.60;99.90;;;;;;4947723;29;20047;-74
2021/11/28 02:41:11;;;;;;;29.73;15.77;;;1.70;99.90;;;;;;4930454;29;20026;-74
2021/11/28 02:43:36;;;;;;;34.42;17.27;;;1.70;99.90;;;;;;4930743;29;20110;-74
2021/11/28 02:46:05;;;;;;;35.35;17.08;;;1.60;99.90;;;;;;4939816;28;20181;-74
2021/11/28 02:48:31;;;;;;;34.95;15.80;;;1.70;99.90;;;;;;4928780;29;20083;-74
2021/11/28 02:50:58;;;;;;;33.47;15.57;;;1.60;99.90;;;;;;4929519;29;20039;-74
2021/11/28 02:53:24;;;;;;;34.58;16.13;;;1.70;99.90;;;;;;4939301;29;20067;-74
2021/11/28 02:55:55;;;;;;;28.67;15.00;;;1.70;99.90;;;;;;4928093;28;20035;-74
2021/11/28 02:58:22;;;;;;;37.08;15.25;;;1.70;99.90;;;;;;4945346;29;20279;-74
2021/11/28 03:01:04;;;;;;;34.33;14.95;;;1.70;99.90;;;;;;4945467;29;20046;-75
2021/11/28 03:03:30;;;;;;;30.58;15.27;;;1.60;99.90;;;;;;4932271;29;20054;-75
2021/11/28 03:05:56;;;;;;;32.60;16.50;;;1.70;99.90;;;;;;4933164;29;20031;-75
2021/11/28 03:08:22;;;;;;;32.08;15.30;;;1.70;99.90;;;;;;4928890;29;20159;-74
2021/11/28 03:10:53;;;;;;;35.38;16.02;;;1.70;99.90;;;;;;4941388;29;20106;-73
2021/11/28 03:13:41;;;;;;;37.90;17.17;;;1.70;99.90;;;;;;4944887;29;20043;-75
2021/11/28 03:16:13;;;;;;;39.08;16.08;;;1.70;99.90;;;;;;4934613;29;20055;-75
2021/11/28 03:18:40;;;;;;;31.30;14.45;;;1.70;99.90;;;;;;4943290;29;20209;-74
2021/11/28 03:21:08;;;;;;;31.60;15.35;;;1.70;99.90;;;;;;4941402;29;20023;-75
2021/11/28 03:23:35;;;;;;;32.13;15.23;;;1.70;99.90;;;;;;4938875;29;20035;-75
2021/11/28 03:26:05;;;;;;;30.05;15.07;;;1.70;99.90;;;;;;4943295;29;20039;-75
2021/11/28 03:28:31;;;;;;;30.33;14.02;;;1.70;99.90;;;;;;4941084;29;20126;-74
2021/11/28 03:30:56;;;;;;;26.73;12.52;;;1.70;99.90;;;;;;4948845;29;20103;-74
2021/11/28 03:33:21;;;;;;;26.20;13.40;;;1.70;99.90;;;;;;4948824;29;20059;-75
2021/11/28 03:35:49;;;;;;;24.77;12.13;;;1.60;99.90;;;;;;4940029;28;20464;-74
2021/11/28 03:38:15;;;;;;;25.23;12.15;;;1.50;99.80;;;;;;4946539;29;20020;-73
2021/11/28 03:40:41;;;;;;;23.63;12.40;;;1.50;99.80;;;;;;4947775;29;20050;-75
2021/11/28 03:43:06;;;;;;;26.83;12.77;;;1.50;99.90;;;;;;4923311;29;20024;-74
2021/11/28 03:45:33;;;;;;;28.95;14.30;;;1.60;99.90;;;;;;4933693;29;20039;-74
2021/11/28 03:47:58;;;;;;;29.27;13.57;;;1.60;99.90;;;;;;4933276;29;20031;-75
2021/11/28 03:50:24;;;;;;;32.33;14.50;;;1.60;99.90;;;;;;4931109;29;20380;-75
2021/11/28 03:52:49;;;;;;;30.60;14.30;;;1.60;99.90;;;;;;4935975;29;20062;-75
2021/11/28 03:55:16;;;;;;;25.65;12.50;;;1.60;99.90;;;;;;4936025;29;20480;-74
2021/11/28 03:57:42;;;;;;;30.55;12.73;;;1.60;99.90;;;;;;4936732;28;20476;-75
2021/11/28 04:00:10;;;;;;;27.98;13.88;;;1.50;99.80;;;;;;4941218;29;20488;-75
2021/11/28 04:02:36;;;;;;;26.13;14.00;;;1.60;99.90;;;;;;4946412;29;20478;-75
2021/11/28 04:05:03;;;;;;;30.02;13.68;;;1.60;99.80;;;;;;4935103;29;20070;-75
2021/11/28 04:07:30;;;;;;;27.60;12.57;;;1.60;99.90;;;;;;4924388;29;20385;-74
2021/11/28 04:09:55;;;;;;;28.67;13.55;;;1.50;99.80;;;;;;4941307;29;20027;-74
2021/11/28 04:12:21;;;;;;;30.15;14.35;;;1.50;99.90;;;;;;4932301;29;20156;-75
2021/11/28 04:14:47;;;;;;;31.95;14.65;;;1.50;99.90;;;;;;4933544;29;20074;-74
2021/11/28 04:17:12;;;;;;;29.10;13.82;;;1.50;99.90;;;;;;4937966;29;20073;-75
2021/11/28 04:19:38;;;;;;;26.40;13.48;;;1.60;99.90;;;;;;4940581;29;20055;-74
2021/11/28 04:22:03;;;;;;;34.33;14.98;;;1.60;99.90;;;;;;4948670;29;20476;-74
2021/11/28 04:24:29;;;;;;;33.75;14.98;;;1.60;99.80;;;;;;4942406;29;20066;-74
2021/11/28 04:26:55;;;;;;;30.83;14.48;;;1.60;99.90;;;;;;4933885;29;20039;-75
2021/11/28 04:29:21;;;;;;;31.27;14.40;;;1.60;99.90;;;;;;4945609;29;20059;-74
2021/11/28 04:31:48;;;;;;;31.33;14.55;;;1.60;99.90;;;;;;4942878;29;20030;-75
2021/11/28 04:34:14;;;;;;;33.80;14.27;;;1.60;99.90;;;;;;4932127;29;20032;-74
2021/11/28 04:36:40;;;;;;;37.00;15.63;;;1.60;99.90;;;;;;4935913;29;20031;-75
2021/11/28 04:39:05;;;;;;;29.63;14.50;;;1.60;99.90;;;;;;4926933;29;20042;-74
2021/11/28 04:41:31;;;;;;;36.13;15.85;;;1.60;99.90;;;;;;4928919;29;20322;-74
2021/11/28 04:43:57;;;;;;;36.03;15.77;;;1.60;99.90;;;;;;4929540;29;20023;-74
2021/11/28 04:46:23;;;;;;;34.25;15.07;;;1.60;99.90;;;;;;4928440;29;20134;-74
2021/11/28 04:48:48;;;;;;;33.33;14.85;;;1.60;99.90;;;;;;4930880;29;20471;-74
2021/11/28 04:51:14;;;;;;;32.17;14.35;;;1.70;99.90;;;;;;4940761;29;20533;-75
2021/11/28 04:53:39;;;;;;;35.67;15.25;;;1.60;99.90;;;;;;4935055;29;20047;-74
2021/11/28 04:56:05;;;;;;;30.13;15.10;;;1.60;99.90;;;;;;4941056;29;20035;-75
2021/11/28 04:58:31;;;;;;;33.60;16.02;;;1.60;99.90;;;;;;4930306;29;20023;-73
2021/11/28 05:00:56;;;;;;;38.22;17.13;;;1.70;99.90;;;;;;4942942;29;20062;-75
2021/11/28 05:03:22;;;;;;;35.08;15.75;;;1.70;99.90;;;;;;4925292;29;20098;-74
2021/11/28 05:05:47;;;;;;;36.33;16.77;;;1.70;99.90;;;;;;4926921;28;20027;-74
2021/11/28 05:08:13;;;;;;;30.88;15.07;;;1.70;99.90;;;;;;4945059;29;20445;-74
2021/11/28 05:10:38;;;;;;;33.50;16.17;;;1.70;99.90;;;;;;4949482;29;20082;-74
2021/11/28 05:13:04;;;;;;;36.03;16.02;;;1.70;99.90;;;;;;4930878;29;20031;-73
2021/11/28 05:15:29;;;;;;;32.85;15.15;;;1.70;99.90;;;;;;4942898;29;20031;-74
2021/11/28 05:17:55;;;;;;;39.80;16.33;;;1.70;99.90;;;;;;4943141;28;20431;-75
2021/11/28 05:20:20;;;;;;;37.95;16.95;;;1.70;99.90;;;;;;4939554;29;20460;-74
2021/11/28 05:22:46;;;;;;;40.83;16.92;;;1.70;99.90;;;;;;4937924;29;20036;-76
2021/11/28 05:25:13;;;;;;;34.70;15.95;;;1.80;99.90;;;;;;4938055;29;20114;-73
2021/11/28 05:27:38;;;;;;;44.00;17.63;;;1.80;99.90;;;;;;4927432;29;20428;-74
2021/11/28 05:30:05;;;;;;;36.58;16.20;;;1.80;99.90;;;;;;4952341;29;20106;-77
2021/11/28 05:32:31;;;;;;;35.83;17.02;;;1.80;99.90;;;;;;4929816;29;20020;-75
2021/11/28 05:34:57;;;;;;;38.33;16.40;;;1.80;99.90;;;;;;4944842;29;20093;-75
2021/11/28 05:37:22;;;;;;;36.45;15.98;;;1.70;99.90;;;;;;4938054;28;20046;-76
2021/11/28 05:39:48;;;;;;;38.65;16.38;;;1.80;99.90;;;;;;4941002;29;20424;-74
2021/11/28 05:42:14;;;;;;;36.28;16.38;;;1.80;99.90;;;;;;4922128;29;20042;-74
2021/11/28 05:44:39;;;;;;;39.92;16.92;;;1.80;99.90;;;;;;4931571;29;20408;-75
2021/11/28 05:47:05;;;;;;;32.63;13.70;;;1.80;99.90;;;;;;4933975;29;20463;-73
2021/11/28 05:49:30;;;;;;;34.22;15.90;;;1.70;99.90;;;;;;4934098;29;20384;-75
2021/11/28 05:51:56;;;;;;;34.67;15.48;;;1.70;99.90;;;;;;4926033;28;20035;-77
2021/11/28 05:54:22;;;;;;;36.28;14.75;;;1.70;99.90;;;;;;4938181;29;20126;-75
2021/11/28 05:56:47;;;;;;;36.17;16.75;;;1.70;99.90;;;;;;4939838;28;20118;-73
2021/11/28 05:59:13;;;;;;;33.83;15.20;;;1.80;99.90;;;;;;4940597;28;20039;-75
2021/11/28 06:01:38;;;;;;;31.70;14.70;;;1.80;99.90;;;;;;4938279;29;20027;-74
2021/11/28 06:04:04;;;;;;;32.50;15.02;;;1.80;99.90;;;;;;4941577;29;20485;-76
2021/11/28 06:06:30;;;;;;;33.38;13.45;;;1.80;99.90;;;;;;4940954;29;20351;-74
2021/11/28 06:08:55;;;;;;;32.45;14.77;;;1.80;99.90;;;;;;4944763;29;20395;-74
2021/11/28 06:11:21;;;;;;;37.50;15.55;;;1.80;99.90;;;;;;4935720;29;20043;-74
2021/11/28 06:13:46;;;;;;;29.40;13.60;;;1.80;99.90;;;;;;4923669;29;20039;-74
2021/11/28 06:16:12;;;;;;;35.70;15.20;;;1.80;99.90;;;;;;4960894;23;20118;-67
2021/11/28 06:18:38;;;;;;;29.27;15.07;;;1.80;99.90;;;;;;4962741;28;20372;-65
2021/11/28 06:21:04;;;;;;;37.28;17.10;;;1.80;99.90;;;;;;4947553;28;21480;-66
2021/11/28 06:23:29;;;;;;;35.53;15.35;;;1.80;99.90;;;;;;4944138;28;20094;-66
2021/11/28 06:25:55;;;;;;;37.47;17.35;;;1.80;99.90;;;;;;4940549;28;20122;-66
2021/11/28 06:28:20;;;;;;;38.05;16.38;;;1.80;99.90;;;;;;4941568;28;20031;-66
2021/11/28 06:30:46;;;;;;;38.92;17.02;;;1.80;99.90;;;;;;4939455;28;20039;-66
2021/11/28 06:33:12;;;;;;;37.15;17.08;;;1.80;99.90;;;;;;4944366;28;20364;-65
2021/11/28 06:35:37;;;;;;;38.22;18.17;;;1.80;99.90;;;;;;4944371;28;20031;-66
2021/11/28 06:38:03;;;;;;;43.97;17.90;;;1.80;99.90;;;;;;4943573;28;20042;-66
2021/11/28 06:40:28;;;;;;;40.60;17.17;;;1.80;99.90;;;;;;4945531;28;20019;-66
2021/11/28 06:42:54;;;;;;;38.60;16.58;;;1.80;99.90;;;;;;4940180;28;20032;-66
2021/11/28 06:45:19;;;;;;;36.00;16.25;;;1.80;99.90;;;;;;4936526;28;20047;-66
2021/11/28 06:47:46;;;;;;;36.30;16.70;;;1.80;99.90;;;;;;4946020;28;20440;-66
2021/11/28 06:50:12;;;;;;;37.25;16.85;;;1.80;99.90;;;;;;4938098;28;20482;-66
2021/11/28 06:52:39;;;;;;;36.78;17.17;;;1.80;99.90;;;;;;4946835;28;20039;-66
2021/11/28 06:55:05;;;;;;;40.28;17.83;;;1.80;99.90;;;;;;4943490;28;20039;-66
2021/11/28 06:57:31;;;;;;;37.05;17.08;;;1.80;99.90;;;;;;4940715;28;20037;-66
2021/11/28 06:59:56;;;;;;;37.95;17.40;;;1.80;99.90;;;;;;4945167;28;20360;-66
2021/11/28 07:02:22;;;;;;;42.13;18.52;;;1.80;99.90;;;;;;4944309;28;20015;-66
2021/11/28 07:04:47;;;;;;;34.63;16.45;;;1.80;99.90;;;;;;4945868;28;20023;-66
2021/11/28 07:07:13;;;;;;;37.65;17.48;;;1.80;99.90;;;;;;4939917;28;20164;-66
2021/11/28 07:09:38;;;;;;;36.30;16.80;;;1.90;99.90;;;;;;4952768;28;20100;-66
2021/11/28 07:12:05;;;;;;;43.92;18.13;;;1.80;99.90;;;;;;4950353;28;20050;-66
2021/11/28 07:14:30;;;;;;;46.28;19.20;;;1.90;99.90;;;;;;4946214;28;20031;-66
2021/11/28 07:16:57;;;;;;;39.58;17.40;;;1.90;99.90;;;;;;4947757;29;20434;-66
2021/11/28 07:19:22;;;;;;;42.72;18.13;;;1.90;99.90;;;;;;4946296;28;20019;-66
2021/11/28 07:21:48;;;;;;;40.50;18.27;;;1.90;99.90;;;;;;4938943;28;20030;-66
2021/11/28 07:24:14;;;;;;;41.83;18.55;;;1.90;99.90;;;;;;4945604;28;20179;-66
2021/11/28 07:26:39;;;;;;;42.80;18.58;;;1.90;99.90;;;;;;4948893;28;20406;-66
2021/11/28 07:29:05;;;;;;;44.08;19.10;;;2.00;99.90;;;;;;4943952;28;20143;-66
2021/11/28 07:31:30;;;;;;;43.53;17.67;;;2.00;99.90;;;;;;4944437;28;20102;-66
2021/11/28 07:33:56;;;;;;;43.03;18.00;;;2.00;99.90;;;;;;4950977;28;20050;-66
2021/11/28 07:36:21;;;;;;;44.58;19.15;;;2.00;99.90;;;;;;4945907;28;20027;-65
2021/11/28 07:38:47;;;;;;;41.88;18.02;;;2.00;99.90;;;;;;4945094;28;20066;-66
2021/11/28 07:41:12;;;;;;;36.42;18.13;;;2.00;99.90;;;;;;4945385;28;20298;-66
2021/11/28 07:43:38;;;;;;;40.65;17.33;;;2.10;99.90;;;;;;4934170;28;20078;-66
2021/11/28 07:46:04;;;;;;;43.72;18.33;;;2.00;99.90;;;;;;4940426;28;20549;-66
2021/11/28 07:48:30;;;;;;;37.65;17.23;;;2.10;99.90;;;;;;4939105;28;20031;-66
2021/11/28 07:50:58;;;;;;;40.28;18.58;;;2.10;99.90;;;;;;4945239;28;20244;-66
2021/11/28 07:53:27;;;;;;;41.40;18.80;;;2.10;99.90;;;;;;4942396;28;20055;-66
2021/11/28 07:55:52;;;;;;;38.60;18.30;;;2.10;99.90;;;;;;4947329;28;20039;-66
2021/11/28 07:58:18;;;;;;;41.83;17.83;;;2.10;99.90;;;;;;4944958;28;20150;-66
2021/11/28 08:00:43;;;;;;;39.47;19.27;;;2.10;99.90;;;;;;4945976;28;20118;-66
2021/11/28 08:03:09;;;;;;;34.47;16.70;;;2.10;99.80;;;;;;4935172;28;20207;-66
2021/11/28 08:05:35;;;;;;;34.75;17.08;;;2.10;99.80;;;;;;4942761;28;20656;-66
2021/11/28 08:08:01;;;;;;;35.40;17.52;;;2.10;99.80;;;;;;4941025;28;20074;-66
2021/11/28 08:10:27;;;;;;;38.70;18.23;;;2.10;99.80;;;;;;4943417;28;20118;-66
2021/11/28 08:12:53;;;;;;;41.28;18.15;;;2.10;99.80;;;;;;4942520;28;20031;-66
2021/11/28 08:15:19;;;;;;;37.20;17.13;;;2.10;99.80;;;;;;4943690;28;20034;-66
2021/11/28 08:17:48;;;;;;;37.10;17.10;;;2.10;99.80;;;;;;4940172;28;20498;-66
2021/11/28 08:20:15;;;;;;;32.72;16.85;;;2.10;99.80;;;;;;4944042;28;20027;-66
2021/11/28 08:22:41;;;;;;;36.55;17.08;;;2.20;99.80;;;;;;4941507;28;20297;-66
2021/11/28 08:25:10;;;;;;;37.53;17.88;;;2.20;99.80;;;;;;4944529;28;20023;-66
2021/11/28 08:27:36;;;;;;;36.35;17.42;;;2.20;99.80;;;;;;4950579;28;20030;-66
2021/11/28 08:30:05;;;;;;;31.25;16.17;;;2.20;99.80;;;;;;4945067;28;20031;-66
2021/11/28 08:32:31;;;;;;;31.65;17.50;;;2.10;99.70;;;;;;4935023;28;20020;-66
2021/11/28 08:34:56;;;;;;;37.08;17.48;;;2.10;99.70;;;;;;4944497;28;20562;-66
2021/11/28 08:37:22;;;;;;;34.25;16.75;;;2.20;99.70;;;;;;4941890;28;20470;-66
2021/11/28 08:39:47;;;;;;;35.05;17.05;;;2.20;99.80;;;;;;4944616;28;20364;-66
2021/11/28 08:42:13;;;;;;;40.63;19.23;;;2.20;99.70;;;;;;4943955;28;20031;-66
2021/11/28 08:44:40;;;;;;;39.28;18.33;;;2.20;99.70;;;;;;4942606;28;20285;-66
2021/11/28 08:47:06;;;;;;;39.42;18.00;;;2.30;99.70;;;;;;4939209;28;20066;-66
2021/11/28 08:49:32;;;;;;;41.38;19.88;;;2.30;99.70;;;;;;4932586;28;20054;-66
2021/11/28 08:51:58;;;;;;;42.58;18.92;;;2.30;99.70;;;;;;4938319;28;20027;-66
2021/11/28 08:54:23;;;;;;;42.67;19.92;;;2.20;99.70;;;;;;4936578;28;20527;-66
2021/11/28 08:56:51;;;;;;;44.63;19.98;;;2.30;99.70;;;;;;4941486;28;20121;-66
2021/11/28 08:59:17;;;;;;;40.63;20.35;;;2.30;99.70;;;;;;4945481;28;20027;-66
2021/11/28 09:01:43;;;;;;;43.47;19.40;;;2.30;99.70;;;;;;4943794;28;20130;-66
2021/11/28 09:04:09;;;;;;;39.88;19.42;;;2.30;99.70;;;;;;4940773;28;20059;-66
2021/11/28 09:06:34;;;;;;;44.17;21.75;;;2.30;99.70;;;;;;4941048;28;20118;-66
2021/11/28 09:09:00;;;;;;;43.40;21.27;;;2.40;99.80;;;;;;4934019;28;20047;-66
2021/11/28 09:11:25;;;;;;;46.17;21.60;;;2.30;99.80;;;;;;4936387;28;20046;-66
2021/11/28 09:13:51;;;;;;;47.90;22.42;;;2.40;99.80;;;;;;4935655;28;20070;-66
2021/11/28 09:16:17;;;;;;;51.10;22.88;;;2.30;99.70;;;;;;4938590;28;20134;-66
2021/11/28 09:18:52;;;;;;;44.85;22.60;;;2.40;99.80;;;;;;4932122;28;20039;-66
2021/11/28 09:21:18;;;;;;;46.42;22.25;;;2.40;99.70;;;;;;4941572;28;20026;-66
2021/11/28 09:26:29;;;;;;;45.50;21.85;;;2.40;99.80;;;;;;4940929;28;20087;-66
2021/11/28 09:28:57;;;;;;;48.00;23.75;;;2.40;99.80;;;;;;4934908;28;20105;-65
2021/11/28 09:31:23;;;;;;;51.35;23.52;;;2.50;99.80;;;;;;4943788;28;20094;-66
2021/11/28 09:33:48;;;;;;;49.30;23.40;;;2.40;99.80;;;;;;4943210;28;20035;-66
2021/11/28 09:36:14;;;;;;;54.92;23.75;;;2.50;99.80;;;;;;4943514;28;20037;-66
2021/11/28 09:38:39;;;;;;;52.97;23.63;;;2.50;99.80;;;;;;4943014;28;20051;-66
2021/11/28 09:41:09;;;;;;;50.67;24.90;;;2.50;99.80;;;;;;4942971;28;20019;-66
2021/11/28 09:43:38;;;;;;;55.73;25.30;;;2.60;99.80;;;;;;4938561;28;20023;-66
2021/11/28 09:46:05;;;;;;;54.10;23.67;;;2.60;99.80;;;;;;4945137;28;20050;-66
2021/11/28 09:48:34;;;;;;;52.25;24.30;;;2.60;99.80;;;;;;4936424;28;20027;-66
2021/11/28 09:51:02;;;;;;;52.67;23.90;;;2.60;99.80;;;;;;4940257;28;20039;-66
2021/11/28 09:53:28;;;;;;;47.60;24.23;;;2.70;99.80;;;;;;4939954;28;20034;-66
2021/11/28 09:55:56;;;;;;;52.15;24.92;;;2.60;99.70;;;;;;4935737;28;20031;-66
2021/11/28 09:58:22;;;;;;;47.80;23.83;;;2.70;99.80;;;;;;4943139;28;20039;-66
2021/11/28 10:00:47;;;;;;;50.63;24.02;;;2.70;99.70;;;;;;4929367;28;20542;-66
2021/11/28 10:03:13;;;;;;;46.55;22.77;;;2.70;99.80;;;;;;4933525;28;20079;-66
2021/11/28 10:05:39;;;;;;;44.47;23.17;;;2.70;99.80;;;;;;4938236;28;20422;-66
2021/11/28 10:08:05;;;;;;;43.33;21.55;;;2.70;99.80;;;;;;4937727;28;20043;-66
2021/11/28 10:10:31;;;;;;;42.78;22.23;;;2.70;99.70;;;;;;4942578;28;20031;-66
2021/11/28 10:12:56;;;;;;;45.63;22.65;;;2.70;99.70;;;;;;4936287;28;20035;-66
2021/11/28 10:15:24;;;;;;;46.10;23.40;;;2.70;99.70;;;;;;4935107;28;20397;-66
2021/11/28 10:17:50;;;;;;;40.65;18.80;;;2.80;99.70;;;;;;4935903;28;20035;-66
2021/11/28 10:20:19;;;;;;;39.53;21.23;;;2.70;99.60;;;;;;4941218;28;20406;-66
2021/11/28 10:22:46;;;;;;;36.85;18.80;;;2.70;99.50;;;;;;4941131;28;20027;-67
2021/11/28 10:25:31;;;;;;;37.15;19.05;;;2.70;99.40;;;;;;4935465;28;20032;-66
2021/11/28 10:28:10;;;;;;;33.22;17.10;;;2.80;99.50;;;;;;4925423;28;20079;-66
2021/11/28 10:30:41;;;;;;;30.77;17.13;;;2.80;99.30;;;;;;4936295;28;20498;-67
2021/11/28 10:33:09;;;;;;;33.65;18.02;;;2.80;99.40;;;;;;4935381;28;20035;-66
2021/11/28 10:35:36;;;;;;;28.90;17.38;;;2.90;99.30;;;;;;4931445;28;20975;-66
2021/11/28 10:38:11;;;;;;;32.05;18.40;;;2.90;99.30;;;;;;4925746;28;20023;-67
2021/11/28 10:40:43;;;;;;;31.33;18.10;;;3.00;99.10;;;;;;4932829;28;20040;-66
2021/11/28 10:43:11;;;;;;;30.13;17.30;;;3.10;99.00;;;;;;4936875;28;20023;-66
2021/11/28 10:45:39;;;;;;;31.10;17.05;;;3.10;99.00;;;;;;4945228;28;20027;-66
2021/11/28 10:48:07;;;;;;;28.67;16.95;;;3.20;98.80;;;;;;4949037;28;20114;-66
2021/11/28 10:50:34;;;;;;;27.15;17.10;;;3.30;98.80;;;;;;4947739;28;20552;-66
2021/11/28 10:53:11;;;;;;;29.23;17.02;;;3.30;98.60;;;;;;4949214;28;20039;-66
2021/11/28 10:56:00;;;;;;;26.42;15.50;;;3.30;98.50;;;;;;4942722;28;20397;-66
2021/11/28 10:58:30;;;;;;;28.42;16.20;;;3.30;98.10;;;;;;4947837;28;20027;-66
2021/11/28 11:01:07;;;;;;;28.00;17.33;;;3.60;98.30;;;;;;4945776;28;20502;-67
2021/11/28 11:03:48;;;;;;;26.80;16.27;;;3.50;97.80;;;;;;4943363;28;20031;-67
2021/11/28 11:06:17;;;;;;;23.77;14.10;;;3.60;97.60;;;;;;4943111;28;20557;-67
2021/11/28 11:08:44;;;;;;;20.40;13.85;;;3.50;97.10;;;;;;4941045;28;20036;-66
2021/11/28 11:11:13;;;;;;;22.33;14.10;;;3.50;97.00;;;;;;4941184;28;20088;-66
2021/11/28 11:14:12;;;;;;;20.08;13.25;;;3.50;97.20;;;;;;4943308;28;20127;-66
2021/11/28 11:16:40;;;;;;;20.65;13.15;;;3.50;97.00;;;;;;4925187;28;20070;-66
2021/11/28 11:19:32;;;;;;;21.73;13.50;;;3.40;96.90;;;;;;4949036;28;20031;-66
2021/11/28 11:22:26;;;;;;;23.25;14.30;;;3.40;97.10;;;;;;4943321;28;20039;-66
2021/11/28 11:24:58;;;;;;;22.27;13.90;;;3.50;97.10;;;;;;4949135;28;20114;-67
2021/11/28 11:27:36;;;;;;;25.10;14.23;;;3.60;97.10;;;;;;4948367;28;20475;-66
2021/11/28 11:30:17;;;;;;;21.15;14.00;;;3.80;97.10;;;;;;4945847;28;20035;-66
2021/11/28 11:32:48;;;;;;;23.70;14.10;;;3.80;96.60;;;;;;4937165;28;20031;-66
2021/11/28 11:35:31;;;;;;;19.33;12.20;;;3.90;96.50;;;;;;4942023;28;20513;-67
2021/11/28 11:38:06;;;;;;;19.20;12.65;;;3.90;95.80;;;;;;4949471;28;20459;-67
2021/11/28 11:40:31;;;;;;;18.70;11.68;;;3.90;95.90;;;;;;4947514;28;20482;-66
2021/11/28 11:42:57;;;;;;;18.88;12.63;;;3.80;95.90;;;;;;4948199;28;20090;-66
2021/11/28 11:45:26;;;;;;;17.60;11.70;;;3.60;95.50;;;;;;4945063;28;20051;-67
2021/11/28 11:47:52;;;;;;;19.25;11.60;;;3.60;95.40;;;;;;4947511;28;20081;-67
2021/11/28 11:50:22;;;;;;;19.52;12.20;;;3.50;95.30;;;;;;4962547;28;20102;-67
2021/11/28 11:52:48;;;;;;;19.00;12.35;;;3.50;95.60;;;;;;4944703;28;20031;-66
2021/11/28 11:55:17;;;;;;;19.27;12.07;;;3.50;96.00;;;;;;4943720;28;20718;-67
2021/11/28 11:58:14;;;;;;;18.48;11.98;;;3.50;95.90;;;;;;4943927;28;20027;-66
2021/11/28 12:00:52;;;;;;;16.52;11.57;;;3.40;96.10;;;;;;4947013;28;20035;-67
2021/11/28 12:03:20;;;;;;;20.77;12.80;;;3.30;96.00;;;;;;4928706;28;20023;-67
2021/11/28 12:05:54;;;;;;;18.77;12.23;;;3.30;96.00;;;;;;4931739;28;20028;-67
2021/11/28 12:08:28;;;;;;;20.33;13.23;;;3.40;96.00;;;;;;4884983;28;20047;-66
2021/11/28 12:11:11;;;;;;;18.92;12.05;;;3.40;95.90;;;;;;4902452;28;20462;-67
2021/11/28 12:13:40;;;;;;;16.58;10.82;;;3.80;95.50;;;;;;4931341;28;20719;-67
2021/11/28 12:16:05;;;;;;;17.08;11.63;;;4.10;94.20;;;;;;4934320;28;20032;-67
2021/11/28 12:18:34;;;;;;;13.98;9.70;;;4.40;92.60;;;;;;4973994;23;20055;-73
2021/11/28 12:21:17;;;;;;;15.82;9.65;;;4.60;92.30;;;;;;4952610;28;20074;-73
2021/11/28 12:23:42;;;;;;;13.45;9.52;;;4.70;91.60;;;;;;4918636;28;20072;-72
2021/11/28 12:26:26;;;;;;;16.65;10.88;;;4.60;91.20;;;;;;4954596;28;20038;-73
2021/11/28 12:28:52;;;;;;;15.15;10.38;;;4.30;91.90;;;;;;4937110;28;20027;-72
2021/11/28 12:31:27;;;;;;;14.27;9.57;;;4.20;92.00;;;;;;4939861;29;20110;-73
2021/11/28 12:33:53;;;;;;;14.02;9.52;;;4.10;92.20;;;;;;4911626;29;20083;-73
2021/11/28 12:36:34;;;;;;;16.30;10.07;;;4.00;92.50;;;;;;4937740;28;20055;-72
2021/11/28 12:39:06;;;;;;;18.35;11.25;;;3.90;92.50;;;;;;4937910;28;20071;-73
2021/11/28 12:41:48;;;;;;;17.17;10.95;;;3.80;93.00;;;;;;4939067;28;20039;-72
2021/11/28 12:44:19;;;;;;;18.20;10.65;;;3.70;93.00;;;;;;4923985;29;20455;-72
2021/11/28 12:46:55;;;;;;;18.15;11.35;;;3.70;93.00;;;;;;4935995;28;20050;-72
2021/11/28 12:49:28;;;;;;;17.20;10.60;;;3.60;93.40;;;;;;4919490;29;20035;-72